sensor_id;sensor_type;location;lat;lon;timestamp;P1;durP1;ratioP1;P2;durP2;ratioP2
8714;SDS011;4394;51.208;8.904;2023-08-08T00:02:20;2.97;;;2.67;;
8714;SDS011;4394;51.208;8.904;2023-08-08T00:05:08;3.87;;;2.70;;
8714;SDS011;4394;51.208;8.904;2023-08-08T00:07:56;5.53;;;3.00;;
8714;SDS011;4394;51.208;8.904;2023-08-08T00:10:44;8.73;;;2.90;;
8714;SDS011;4394;51.208;8.904;2023-08-08T00:13:33;4.80;;;2.93;;
8714;SDS011;4394;51.208;8.904;2023-08-08T00:16:22;5.33;;;3.27;;
8714;SDS011;4394;51.208;8.904;2023-08-08T00:19:10;5.70;;;3.10;;
8714;SDS011;4394;51.208;8.904;2023-08-08T00:21:58;4.97;;;3.47;;
8714;SDS011;4394;51.208;8.904;2023-08-08T00:24:46;2.77;;;2.50;;
8714;SDS011;4394;51.208;8.904;2023-08-08T00:27:34;5.50;;;3.20;;
8714;SDS011;4394;51.208;8.904;2023-08-08T00:30:29;3.77;;;2.77;;
8714;SDS011;4394;51.208;8.904;2023-08-08T00:33:17;4.43;;;2.90;;
8714;SDS011;4394;51.208;8.904;2023-08-08T00:36:06;4.10;;;2.57;;
8714;SDS011;4394;51.208;8.904;2023-08-08T00:38:54;3.03;;;2.73;;
8714;SDS011;4394;51.208;8.904;2023-08-08T00:41:42;4.37;;;2.57;;
8714;SDS011;4394;51.208;8.904;2023-08-08T00:44:30;4.43;;;2.67;;
8714;SDS011;4394;51.208;8.904;2023-08-08T00:47:20;3.60;;;2.40;;
8714;SDS011;4394;51.208;8.904;2023-08-08T00:50:08;5.53;;;3.00;;
8714;SDS011;4394;51.208;8.904;2023-08-08T00:52:58;3.70;;;2.77;;
8714;SDS011;4394;51.208;8.904;2023-08-08T00:55:46;4.97;;;2.70;;
8714;SDS011;4394;51.208;8.904;2023-08-08T00:58:35;3.80;;;2.70;;
8714;SDS011;4394;51.208;8.904;2023-08-08T01:01:23;3.63;;;2.30;;
8714;SDS011;4394;51.208;8.904;2023-08-08T01:04:13;2.77;;;2.33;;
8714;SDS011;4394;51.208;8.904;2023-08-08T01:07:04;2.50;;;2.10;;
8714;SDS011;4394;51.208;8.904;2023-08-08T01:10:00;3.53;;;2.55;;
8714;SDS011;4394;51.208;8.904;2023-08-08T01:12:55;4.33;;;2.50;;
8714;SDS011;4394;51.208;8.904;2023-08-08T01:15:46;3.10;;;2.33;;
8714;SDS011;4394;51.208;8.904;2023-08-08T01:18:36;4.37;;;2.10;;
8714;SDS011;4394;51.208;8.904;2023-08-08T01:21:27;4.30;;;2.40;;
8714;SDS011;4394;51.208;8.904;2023-08-08T01:24:20;4.05;;;2.45;;
8714;SDS011;4394;51.208;8.904;2023-08-08T01:27:09;4.17;;;2.83;;
8714;SDS011;4394;51.208;8.904;2023-08-08T01:29:58;3.20;;;2.20;;
8714;SDS011;4394;51.208;8.904;2023-08-08T01:32:46;3.57;;;2.20;;
8714;SDS011;4394;51.208;8.904;2023-08-08T01:35:36;3.67;;;2.50;;
8714;SDS011;4394;51.208;8.904;2023-08-08T01:38:28;4.93;;;2.23;;
8714;SDS011;4394;51.208;8.904;2023-08-08T01:41:21;3.73;;;2.27;;
8714;SDS011;4394;51.208;8.904;2023-08-08T01:44:11;3.57;;;2.77;;
8714;SDS011;4394;51.208;8.904;2023-08-08T01:47:00;3.20;;;2.20;;
8714;SDS011;4394;51.208;8.904;2023-08-08T01:49:48;5.10;;;2.53;;
8714;SDS011;4394;51.208;8.904;2023-08-08T01:52:36;2.67;;;2.10;;
8714;SDS011;4394;51.208;8.904;2023-08-08T01:55:24;3.17;;;2.17;;
8714;SDS011;4394;51.208;8.904;2023-08-08T01:58:14;3.83;;;2.40;;
8714;SDS011;4394;51.208;8.904;2023-08-08T02:01:02;3.17;;;2.30;;
8714;SDS011;4394;51.208;8.904;2023-08-08T02:03:50;2.10;;;1.90;;
8714;SDS011;4394;51.208;8.904;2023-08-08T02:06:38;4.20;;;2.10;;
8714;SDS011;4394;51.208;8.904;2023-08-08T02:09:26;2.43;;;1.97;;
8714;SDS011;4394;51.208;8.904;2023-08-08T02:12:15;2.37;;;2.17;;
8714;SDS011;4394;51.208;8.904;2023-08-08T02:15:05;2.60;;;2.40;;
8714;SDS011;4394;51.208;8.904;2023-08-08T02:17:54;2.57;;;2.23;;
8714;SDS011;4394;51.208;8.904;2023-08-08T02:20:42;4.17;;;2.40;;
8714;SDS011;4394;51.208;8.904;2023-08-08T02:23:30;4.63;;;2.50;;
8714;SDS011;4394;51.208;8.904;2023-08-08T02:26:18;5.10;;;2.67;;
8714;SDS011;4394;51.208;8.904;2023-08-08T02:29:06;4.00;;;2.70;;
8714;SDS011;4394;51.208;8.904;2023-08-08T02:31:55;4.37;;;2.93;;
8714;SDS011;4394;51.208;8.904;2023-08-08T02:34:44;3.67;;;2.80;;
8714;SDS011;4394;51.208;8.904;2023-08-08T02:37:32;4.47;;;3.50;;
8714;SDS011;4394;51.208;8.904;2023-08-08T02:40:21;6.00;;;3.53;;
8714;SDS011;4394;51.208;8.904;2023-08-08T02:43:10;4.40;;;3.07;;
8714;SDS011;4394;51.208;8.904;2023-08-08T02:45:59;4.33;;;3.10;;
8714;SDS011;4394;51.208;8.904;2023-08-08T02:48:48;5.00;;;3.37;;
8714;SDS011;4394;51.208;8.904;2023-08-08T02:51:36;5.20;;;3.83;;
8714;SDS011;4394;51.208;8.904;2023-08-08T02:54:24;4.90;;;3.17;;
8714;SDS011;4394;51.208;8.904;2023-08-08T02:57:12;4.30;;;2.73;;
8714;SDS011;4394;51.208;8.904;2023-08-08T03:00:01;3.97;;;3.30;;
8714;SDS011;4394;51.208;8.904;2023-08-08T03:02:50;3.97;;;3.13;;
8714;SDS011;4394;51.208;8.904;2023-08-08T03:05:39;6.27;;;3.30;;
8714;SDS011;4394;51.208;8.904;2023-08-08T03:08:28;5.43;;;3.50;;
8714;SDS011;4394;51.208;8.904;2023-08-08T03:11:16;4.43;;;2.97;;
8714;SDS011;4394;51.208;8.904;2023-08-08T03:14:04;4.37;;;3.43;;
8714;SDS011;4394;51.208;8.904;2023-08-08T03:16:52;5.30;;;3.50;;
8714;SDS011;4394;51.208;8.904;2023-08-08T03:19:40;3.93;;;3.43;;
8714;SDS011;4394;51.208;8.904;2023-08-08T03:22:30;5.30;;;3.47;;
8714;SDS011;4394;51.208;8.904;2023-08-08T03:25:18;3.40;;;3.07;;
8714;SDS011;4394;51.208;8.904;2023-08-08T03:28:06;4.57;;;4.03;;
8714;SDS011;4394;51.208;8.904;2023-08-08T03:30:54;6.27;;;3.70;;
8714;SDS011;4394;51.208;8.904;2023-08-08T03:33:42;4.40;;;3.53;;
8714;SDS011;4394;51.208;8.904;2023-08-08T03:36:30;7.20;;;3.70;;
8714;SDS011;4394;51.208;8.904;2023-08-08T03:39:20;6.20;;;3.43;;
8714;SDS011;4394;51.208;8.904;2023-08-08T03:42:08;5.37;;;3.50;;
8714;SDS011;4394;51.208;8.904;2023-08-08T03:44:56;4.07;;;3.60;;
8714;SDS011;4394;51.208;8.904;2023-08-08T03:47:44;3.80;;;3.23;;
8714;SDS011;4394;51.208;8.904;2023-08-08T03:50:32;5.40;;;3.80;;
8714;SDS011;4394;51.208;8.904;2023-08-08T03:53:21;6.07;;;3.80;;
8714;SDS011;4394;51.208;8.904;2023-08-08T03:56:10;7.10;;;3.73;;
8714;SDS011;4394;51.208;8.904;2023-08-08T03:58:58;5.90;;;3.47;;
8714;SDS011;4394;51.208;8.904;2023-08-08T04:01:47;5.93;;;3.47;;
8714;SDS011;4394;51.208;8.904;2023-08-08T04:04:35;4.60;;;3.43;;
8714;SDS011;4394;51.208;8.904;2023-08-08T04:07:23;5.23;;;3.60;;
8714;SDS011;4394;51.208;8.904;2023-08-08T04:10:11;6.30;;;3.80;;
8714;SDS011;4394;51.208;8.904;2023-08-08T04:13:01;6.37;;;3.93;;
8714;SDS011;4394;51.208;8.904;2023-08-08T04:15:49;8.67;;;3.97;;
8714;SDS011;4394;51.208;8.904;2023-08-08T04:18:38;6.13;;;3.50;;
8714;SDS011;4394;51.208;8.904;2023-08-08T04:21:26;6.53;;;3.70;;
8714;SDS011;4394;51.208;8.904;2023-08-08T04:24:15;6.63;;;3.87;;
8714;SDS011;4394;51.208;8.904;2023-08-08T04:27:03;3.40;;;2.97;;
8714;SDS011;4394;51.208;8.904;2023-08-08T04:29:53;4.30;;;3.23;;
8714;SDS011;4394;51.208;8.904;2023-08-08T04:32:41;4.63;;;3.30;;
8714;SDS011;4394;51.208;8.904;2023-08-08T04:35:29;8.43;;;3.40;;
8714;SDS011;4394;51.208;8.904;2023-08-08T04:38:17;6.00;;;3.20;;
8714;SDS011;4394;51.208;8.904;2023-08-08T04:41:05;3.20;;;2.70;;
8714;SDS011;4394;51.208;8.904;2023-08-08T04:43:53;7.67;;;3.07;;
8714;SDS011;4394;51.208;8.904;2023-08-08T04:46:43;2.93;;;2.70;;
8714;SDS011;4394;51.208;8.904;2023-08-08T04:49:31;3.37;;;3.00;;
8714;SDS011;4394;51.208;8.904;2023-08-08T04:52:19;3.90;;;2.70;;
8714;SDS011;4394;51.208;8.904;2023-08-08T04:55:08;6.00;;;3.33;;
8714;SDS011;4394;51.208;8.904;2023-08-08T04:57:56;4.27;;;2.60;;
8714;SDS011;4394;51.208;8.904;2023-08-08T05:00:44;4.03;;;2.80;;
8714;SDS011;4394;51.208;8.904;2023-08-08T05:03:34;4.03;;;2.70;;
8714;SDS011;4394;51.208;8.904;2023-08-08T05:06:23;3.77;;;2.87;;
8714;SDS011;4394;51.208;8.904;2023-08-08T05:09:11;4.50;;;2.57;;
8714;SDS011;4394;51.208;8.904;2023-08-08T05:11:59;4.43;;;2.90;;
8714;SDS011;4394;51.208;8.904;2023-08-08T05:14:49;3.83;;;2.77;;
8714;SDS011;4394;51.208;8.904;2023-08-08T05:17:38;6.83;;;2.90;;
8714;SDS011;4394;51.208;8.904;2023-08-08T05:20:28;5.20;;;3.00;;
8714;SDS011;4394;51.208;8.904;2023-08-08T05:23:16;3.33;;;2.70;;
8714;SDS011;4394;51.208;8.904;2023-08-08T05:26:04;4.33;;;2.80;;
8714;SDS011;4394;51.208;8.904;2023-08-08T05:28:52;5.50;;;3.20;;
8714;SDS011;4394;51.208;8.904;2023-08-08T05:31:40;3.92;;;3.33;;
8714;SDS011;4394;51.208;8.904;2023-08-08T05:34:28;4.43;;;3.03;;
8714;SDS011;4394;51.208;8.904;2023-08-08T05:37:18;5.13;;;3.10;;
8714;SDS011;4394;51.208;8.904;2023-08-08T05:40:07;4.43;;;2.90;;
8714;SDS011;4394;51.208;8.904;2023-08-08T05:42:56;7.57;;;3.23;;
8714;SDS011;4394;51.208;8.904;2023-08-08T05:45:44;6.15;;;3.20;;
8714;SDS011;4394;51.208;8.904;2023-08-08T05:48:33;3.90;;;3.10;;
8714;SDS011;4394;51.208;8.904;2023-08-08T05:51:21;5.73;;;3.03;;
8714;SDS011;4394;51.208;8.904;2023-08-08T05:54:13;6.10;;;2.93;;
8714;SDS011;4394;51.208;8.904;2023-08-08T05:57:02;5.83;;;3.20;;
8714;SDS011;4394;51.208;8.904;2023-08-08T05:59:50;6.37;;;3.10;;
8714;SDS011;4394;51.208;8.904;2023-08-08T06:02:38;5.30;;;3.33;;
8714;SDS011;4394;51.208;8.904;2023-08-08T06:05:26;3.77;;;3.00;;
8714;SDS011;4394;51.208;8.904;2023-08-08T06:08:15;5.13;;;2.97;;
8714;SDS011;4394;51.208;8.904;2023-08-08T06:11:04;4.30;;;3.70;;
8714;SDS011;4394;51.208;8.904;2023-08-08T06:13:52;4.87;;;3.43;;
8714;SDS011;4394;51.208;8.904;2023-08-08T06:16:41;4.80;;;3.53;;
8714;SDS011;4394;51.208;8.904;2023-08-08T06:19:29;5.67;;;3.63;;
8714;SDS011;4394;51.208;8.904;2023-08-08T06:22:17;5.67;;;4.17;;
8714;SDS011;4394;51.208;8.904;2023-08-08T06:25:09;4.10;;;3.80;;
8714;SDS011;4394;51.208;8.904;2023-08-08T06:27:59;4.83;;;3.70;;
8714;SDS011;4394;51.208;8.904;2023-08-08T06:30:47;7.57;;;5.00;;
8714;SDS011;4394;51.208;8.904;2023-08-08T06:33:35;7.70;;;5.30;;
8714;SDS011;4394;51.208;8.904;2023-08-08T06:36:23;6.77;;;5.00;;
8714;SDS011;4394;51.208;8.904;2023-08-08T06:39:11;8.17;;;5.90;;
8714;SDS011;4394;51.208;8.904;2023-08-08T06:41:59;6.67;;;5.37;;
8714;SDS011;4394;51.208;8.904;2023-08-08T06:44:49;10.00;;;5.90;;
8714;SDS011;4394;51.208;8.904;2023-08-08T06:47:37;7.17;;;5.67;;
8714;SDS011;4394;51.208;8.904;2023-08-08T06:50:26;7.40;;;5.20;;
8714;SDS011;4394;51.208;8.904;2023-08-08T06:53:14;8.33;;;5.57;;
8714;SDS011;4394;51.208;8.904;2023-08-08T06:56:03;6.27;;;5.43;;
8714;SDS011;4394;51.208;8.904;2023-08-08T06:58:51;7.83;;;5.30;;
8714;SDS011;4394;51.208;8.904;2023-08-08T07:01:41;9.13;;;5.90;;
8714;SDS011;4394;51.208;8.904;2023-08-08T07:04:29;9.90;;;5.67;;
8714;SDS011;4394;51.208;8.904;2023-08-08T07:07:17;9.30;;;5.90;;
8714;SDS011;4394;51.208;8.904;2023-08-08T07:10:05;8.07;;;5.63;;
8714;SDS011;4394;51.208;8.904;2023-08-08T07:12:54;10.27;;;7.10;;
8714;SDS011;4394;51.208;8.904;2023-08-08T07:15:42;10.30;;;6.23;;
8714;SDS011;4394;51.208;8.904;2023-08-08T07:18:32;8.53;;;6.57;;
8714;SDS011;4394;51.208;8.904;2023-08-08T07:21:21;9.77;;;6.60;;
8714;SDS011;4394;51.208;8.904;2023-08-08T07:24:09;7.43;;;6.10;;
8714;SDS011;4394;51.208;8.904;2023-08-08T07:26:57;8.23;;;6.00;;
8714;SDS011;4394;51.208;8.904;2023-08-08T07:29:46;9.67;;;6.23;;
8714;SDS011;4394;51.208;8.904;2023-08-08T07:32:35;10.27;;;5.93;;
8714;SDS011;4394;51.208;8.904;2023-08-08T07:35:24;8.67;;;6.40;;
8714;SDS011;4394;51.208;8.904;2023-08-08T07:38:13;7.90;;;6.13;;
8714;SDS011;4394;51.208;8.904;2023-08-08T07:41:02;7.33;;;5.97;;
8714;SDS011;4394;51.208;8.904;2023-08-08T07:43:50;11.13;;;6.40;;
8714;SDS011;4394;51.208;8.904;2023-08-08T07:46:38;7.90;;;6.37;;
8714;SDS011;4394;51.208;8.904;2023-08-08T07:49:26;9.70;;;6.33;;
8714;SDS011;4394;51.208;8.904;2023-08-08T07:52:15;9.43;;;6.70;;
8714;SDS011;4394;51.208;8.904;2023-08-08T07:55:04;7.60;;;5.70;;
8714;SDS011;4394;51.208;8.904;2023-08-08T07:57:53;10.23;;;6.20;;
8714;SDS011;4394;51.208;8.904;2023-08-08T08:00:41;11.17;;;6.17;;
8714;SDS011;4394;51.208;8.904;2023-08-08T08:03:30;11.77;;;6.47;;
8714;SDS011;4394;51.208;8.904;2023-08-08T08:06:19;9.67;;;5.60;;
8714;SDS011;4394;51.208;8.904;2023-08-08T08:09:08;7.97;;;5.77;;
8714;SDS011;4394;51.208;8.904;2023-08-08T08:11:57;7.10;;;5.50;;
8714;SDS011;4394;51.208;8.904;2023-08-08T08:14:45;11.97;;;5.97;;
8714;SDS011;4394;51.208;8.904;2023-08-08T08:17:33;8.93;;;6.23;;
8714;SDS011;4394;51.208;8.904;2023-08-08T08:20:21;9.10;;;6.40;;
8714;SDS011;4394;51.208;8.904;2023-08-08T08:23:10;9.83;;;6.37;;
8714;SDS011;4394;51.208;8.904;2023-08-08T08:25:59;8.80;;;5.70;;
8714;SDS011;4394;51.208;8.904;2023-08-08T08:28:48;8.60;;;5.90;;
8714;SDS011;4394;51.208;8.904;2023-08-08T08:31:36;8.73;;;6.13;;
8714;SDS011;4394;51.208;8.904;2023-08-08T08:34:24;8.63;;;6.63;;
8714;SDS011;4394;51.208;8.904;2023-08-08T08:37:12;9.23;;;6.63;;
8714;SDS011;4394;51.208;8.904;2023-08-08T08:40:01;9.67;;;6.17;;
8714;SDS011;4394;51.208;8.904;2023-08-08T08:42:52;9.80;;;6.33;;
8714;SDS011;4394;51.208;8.904;2023-08-08T08:45:41;13.07;;;7.53;;
8714;SDS011;4394;51.208;8.904;2023-08-08T08:48:36;9.00;;;6.27;;
8714;SDS011;4394;51.208;8.904;2023-08-08T08:51:25;8.37;;;6.47;;
8714;SDS011;4394;51.208;8.904;2023-08-08T08:54:14;10.90;;;7.27;;
8714;SDS011;4394;51.208;8.904;2023-08-08T08:57:02;8.93;;;6.10;;
8714;SDS011;4394;51.208;8.904;2023-08-08T08:59:52;9.77;;;6.43;;
8714;SDS011;4394;51.208;8.904;2023-08-08T09:02:41;11.93;;;7.20;;
8714;SDS011;4394;51.208;8.904;2023-08-08T09:05:29;10.03;;;6.97;;
8714;SDS011;4394;51.208;8.904;2023-08-08T09:08:19;9.27;;;6.40;;
8714;SDS011;4394;51.208;8.904;2023-08-08T09:11:07;8.77;;;6.73;;
8714;SDS011;4394;51.208;8.904;2023-08-08T09:13:55;7.57;;;6.70;;
8714;SDS011;4394;51.208;8.904;2023-08-08T09:16:44;10.70;;;6.90;;
8714;SDS011;4394;51.208;8.904;2023-08-08T09:19:33;10.83;;;6.67;;
8714;SDS011;4394;51.208;8.904;2023-08-08T09:22:21;10.03;;;7.20;;
8714;SDS011;4394;51.208;8.904;2023-08-08T09:25:10;11.40;;;7.70;;
8714;SDS011;4394;51.208;8.904;2023-08-08T09:27:59;12.33;;;7.03;;
8714;SDS011;4394;51.208;8.904;2023-08-08T09:30:48;10.30;;;7.60;;
8714;SDS011;4394;51.208;8.904;2023-08-08T09:33:39;8.97;;;7.00;;
8714;SDS011;4394;51.208;8.904;2023-08-08T09:36:27;9.82;;;7.70;;
8714;SDS011;4394;51.208;8.904;2023-08-08T09:39:19;8.80;;;6.80;;
8714;SDS011;4394;51.208;8.904;2023-08-08T09:42:07;7.67;;;6.87;;
8714;SDS011;4394;51.208;8.904;2023-08-08T09:44:58;9.47;;;6.73;;
8714;SDS011;4394;51.208;8.904;2023-08-08T09:47:46;9.10;;;7.27;;
8714;SDS011;4394;51.208;8.904;2023-08-08T09:50:37;8.17;;;6.67;;
8714;SDS011;4394;51.208;8.904;2023-08-08T09:53:27;10.43;;;6.83;;
8714;SDS011;4394;51.208;8.904;2023-08-08T09:56:16;7.43;;;6.63;;
8714;SDS011;4394;51.208;8.904;2023-08-08T09:59:06;8.00;;;6.67;;
8714;SDS011;4394;51.208;8.904;2023-08-08T10:01:57;10.03;;;6.53;;
8714;SDS011;4394;51.208;8.904;2023-08-08T10:04:46;8.87;;;5.97;;
8714;SDS011;4394;51.208;8.904;2023-08-08T10:07:36;10.87;;;6.33;;
8714;SDS011;4394;51.208;8.904;2023-08-08T10:10:24;8.80;;;6.20;;
8714;SDS011;4394;51.208;8.904;2023-08-08T10:13:18;10.33;;;6.27;;
8714;SDS011;4394;51.208;8.904;2023-08-08T10:16:07;7.23;;;6.33;;
8714;SDS011;4394;51.208;8.904;2023-08-08T10:18:56;7.70;;;6.10;;
8714;SDS011;4394;51.208;8.904;2023-08-08T10:21:47;8.90;;;6.33;;
8714;SDS011;4394;51.208;8.904;2023-08-08T10:24:38;7.03;;;6.00;;
8714;SDS011;4394;51.208;8.904;2023-08-08T10:27:31;7.93;;;6.10;;
8714;SDS011;4394;51.208;8.904;2023-08-08T10:30:20;7.00;;;5.53;;
8714;SDS011;4394;51.208;8.904;2023-08-08T10:33:14;8.43;;;5.80;;
8714;SDS011;4394;51.208;8.904;2023-08-08T10:36:04;9.00;;;5.50;;
8714;SDS011;4394;51.208;8.904;2023-08-08T10:38:57;8.10;;;5.50;;
8714;SDS011;4394;51.208;8.904;2023-08-08T10:41:48;10.27;;;5.93;;
8714;SDS011;4394;51.208;8.904;2023-08-08T10:44:40;9.40;;;5.90;;
8714;SDS011;4394;51.208;8.904;2023-08-08T10:47:30;8.17;;;6.80;;
8714;SDS011;4394;51.208;8.904;2023-08-08T10:50:21;9.07;;;6.77;;
8714;SDS011;4394;51.208;8.904;2023-08-08T10:53:10;7.13;;;5.50;;
8714;SDS011;4394;51.208;8.904;2023-08-08T10:55:59;5.73;;;5.13;;
8714;SDS011;4394;51.208;8.904;2023-08-08T10:58:49;6.10;;;4.60;;
8714;SDS011;4394;51.208;8.904;2023-08-08T11:01:38;6.40;;;4.87;;
8714;SDS011;4394;51.208;8.904;2023-08-08T11:04:26;7.50;;;4.80;;
8714;SDS011;4394;51.208;8.904;2023-08-08T11:07:15;4.73;;;4.27;;
8714;SDS011;4394;51.208;8.904;2023-08-08T11:10:04;7.30;;;4.63;;
8714;SDS011;4394;51.208;8.904;2023-08-08T11:12:54;5.53;;;4.50;;
8714;SDS011;4394;51.208;8.904;2023-08-08T11:15:45;6.10;;;4.17;;
8714;SDS011;4394;51.208;8.904;2023-08-08T11:18:34;5.00;;;3.77;;
8714;SDS011;4394;51.208;8.904;2023-08-08T11:21:23;8.80;;;6.37;;
8714;SDS011;4394;51.208;8.904;2023-08-08T11:24:11;6.23;;;4.47;;
8714;SDS011;4394;51.208;8.904;2023-08-08T11:26:59;5.00;;;3.80;;
8714;SDS011;4394;51.208;8.904;2023-08-08T11:29:48;4.93;;;3.60;;
8714;SDS011;4394;51.208;8.904;2023-08-08T11:32:38;6.97;;;3.83;;
8714;SDS011;4394;51.208;8.904;2023-08-08T11:35:27;6.97;;;4.10;;
8714;SDS011;4394;51.208;8.904;2023-08-08T11:38:15;6.30;;;4.07;;
8714;SDS011;4394;51.208;8.904;2023-08-08T11:41:05;5.40;;;4.17;;
8714;SDS011;4394;51.208;8.904;2023-08-08T11:43:53;7.17;;;3.97;;
8714;SDS011;4394;51.208;8.904;2023-08-08T11:46:45;5.97;;;4.03;;
8714;SDS011;4394;51.208;8.904;2023-08-08T11:49:40;4.10;;;3.70;;
8714;SDS011;4394;51.208;8.904;2023-08-08T11:52:29;4.60;;;3.77;;
8714;SDS011;4394;51.208;8.904;2023-08-08T11:55:17;5.03;;;4.17;;
8714;SDS011;4394;51.208;8.904;2023-08-08T11:58:12;4.10;;;3.70;;
8714;SDS011;4394;51.208;8.904;2023-08-08T12:01:01;3.77;;;3.23;;
8714;SDS011;4394;51.208;8.904;2023-08-08T12:03:49;5.60;;;3.40;;
8714;SDS011;4394;51.208;8.904;2023-08-08T12:06:39;4.40;;;4.00;;
8714;SDS011;4394;51.208;8.904;2023-08-08T12:09:30;4.03;;;3.73;;
8714;SDS011;4394;51.208;8.904;2023-08-08T12:12:19;5.30;;;3.47;;
8714;SDS011;4394;51.208;8.904;2023-08-08T12:15:08;3.43;;;3.13;;
8714;SDS011;4394;51.208;8.904;2023-08-08T12:18:06;7.30;;;3.60;;
8714;SDS011;4394;51.208;8.904;2023-08-08T12:20:54;5.67;;;3.30;;
8714;SDS011;4394;51.208;8.904;2023-08-08T12:23:43;3.60;;;2.83;;
8714;SDS011;4394;51.208;8.904;2023-08-08T12:26:32;4.40;;;3.13;;
8714;SDS011;4394;51.208;8.904;2023-08-08T12:29:20;5.50;;;3.20;;
8714;SDS011;4394;51.208;8.904;2023-08-08T12:32:08;5.23;;;3.23;;
8714;SDS011;4394;51.208;8.904;2023-08-08T12:34:56;5.27;;;3.23;;
8714;SDS011;4394;51.208;8.904;2023-08-08T12:37:44;4.10;;;2.93;;
8714;SDS011;4394;51.208;8.904;2023-08-08T12:40:34;4.53;;;3.27;;
8714;SDS011;4394;51.208;8.904;2023-08-08T12:43:22;3.63;;;3.10;;
8714;SDS011;4394;51.208;8.904;2023-08-08T12:46:10;3.63;;;3.00;;
8714;SDS011;4394;51.208;8.904;2023-08-08T12:48:58;3.40;;;2.90;;
8714;SDS011;4394;51.208;8.904;2023-08-08T12:51:46;4.90;;;3.20;;
8714;SDS011;4394;51.208;8.904;2023-08-08T12:54:35;4.27;;;3.07;;
8714;SDS011;4394;51.208;8.904;2023-08-08T12:57:24;4.13;;;3.33;;
8714;SDS011;4394;51.208;8.904;2023-08-08T13:00:13;3.30;;;2.90;;
8714;SDS011;4394;51.208;8.904;2023-08-08T13:03:02;3.50;;;2.97;;
8714;SDS011;4394;51.208;8.904;2023-08-08T13:05:51;3.97;;;2.80;;
8714;SDS011;4394;51.208;8.904;2023-08-08T13:08:39;5.10;;;2.80;;
8714;SDS011;4394;51.208;8.904;2023-08-08T13:11:27;4.77;;;2.70;;
8714;SDS011;4394;51.208;8.904;2023-08-08T13:14:17;3.10;;;2.80;;
8714;SDS011;4394;51.208;8.904;2023-08-08T13:17:05;3.17;;;2.87;;
8714;SDS011;4394;51.208;8.904;2023-08-08T13:19:53;4.73;;;3.30;;
8714;SDS011;4394;51.208;8.904;2023-08-08T13:22:41;4.07;;;3.23;;
8714;SDS011;4394;51.208;8.904;2023-08-08T13:25:30;3.30;;;3.00;;
8714;SDS011;4394;51.208;8.904;2023-08-08T13:28:20;4.70;;;3.53;;
8714;SDS011;4394;51.208;8.904;2023-08-08T13:31:10;5.20;;;3.10;;
8714;SDS011;4394;51.208;8.904;2023-08-08T13:33:58;4.77;;;3.50;;
8714;SDS011;4394;51.208;8.904;2023-08-08T13:36:46;4.47;;;3.43;;
8714;SDS011;4394;51.208;8.904;2023-08-08T13:39:34;8.23;;;3.00;;
8714;SDS011;4394;51.208;8.904;2023-08-08T13:42:22;4.37;;;3.23;;
8714;SDS011;4394;51.208;8.904;2023-08-08T13:45:10;5.13;;;3.50;;
8714;SDS011;4394;51.208;8.904;2023-08-08T13:48:00;4.60;;;3.07;;
8714;SDS011;4394;51.208;8.904;2023-08-08T13:50:49;3.73;;;3.20;;
8714;SDS011;4394;51.208;8.904;2023-08-08T13:53:38;5.03;;;3.00;;
8714;SDS011;4394;51.208;8.904;2023-08-08T13:56:26;5.60;;;3.10;;
8714;SDS011;4394;51.208;8.904;2023-08-08T13:59:15;4.40;;;3.10;;
8714;SDS011;4394;51.208;8.904;2023-08-08T14:02:03;4.63;;;3.50;;
8714;SDS011;4394;51.208;8.904;2023-08-08T14:04:52;4.43;;;3.53;;
8714;SDS011;4394;51.208;8.904;2023-08-08T14:07:40;3.50;;;3.10;;
8714;SDS011;4394;51.208;8.904;2023-08-08T14:10:29;3.50;;;2.77;;
8714;SDS011;4394;51.208;8.904;2023-08-08T14:13:17;3.83;;;3.17;;
8714;SDS011;4394;51.208;8.904;2023-08-08T14:16:05;5.60;;;3.47;;
8714;SDS011;4394;51.208;8.904;2023-08-08T14:18:54;5.40;;;3.10;;
8714;SDS011;4394;51.208;8.904;2023-08-08T14:21:43;7.20;;;3.20;;
8714;SDS011;4394;51.208;8.904;2023-08-08T14:24:31;6.70;;;3.00;;
8714;SDS011;4394;51.208;8.904;2023-08-08T14:27:19;6.63;;;3.40;;
8714;SDS011;4394;51.208;8.904;2023-08-08T14:30:08;5.27;;;3.20;;
8714;SDS011;4394;51.208;8.904;2023-08-08T14:32:56;4.57;;;3.37;;
8714;SDS011;4394;51.208;8.904;2023-08-08T14:35:44;4.93;;;2.90;;
8714;SDS011;4394;51.208;8.904;2023-08-08T14:38:35;5.83;;;2.93;;
8714;SDS011;4394;51.208;8.904;2023-08-08T14:41:25;5.17;;;3.03;;
8714;SDS011;4394;51.208;8.904;2023-08-08T14:44:14;3.47;;;2.53;;
8714;SDS011;4394;51.208;8.904;2023-08-08T14:47:02;4.37;;;2.90;;
8714;SDS011;4394;51.208;8.904;2023-08-08T14:49:50;3.10;;;2.77;;
8714;SDS011;4394;51.208;8.904;2023-08-08T14:52:38;4.63;;;2.83;;
8714;SDS011;4394;51.208;8.904;2023-08-08T14:55:28;3.53;;;2.70;;
8714;SDS011;4394;51.208;8.904;2023-08-08T14:58:16;3.00;;;2.63;;
8714;SDS011;4394;51.208;8.904;2023-08-08T15:01:04;4.07;;;2.70;;
8714;SDS011;4394;51.208;8.904;2023-08-08T15:03:53;2.73;;;2.37;;
8714;SDS011;4394;51.208;8.904;2023-08-08T15:06:43;2.93;;;2.43;;
8714;SDS011;4394;51.208;8.904;2023-08-08T15:09:32;4.23;;;2.27;;
8714;SDS011;4394;51.208;8.904;2023-08-08T15:12:21;3.63;;;2.47;;
8714;SDS011;4394;51.208;8.904;2023-08-08T15:15:10;3.90;;;2.67;;
8714;SDS011;4394;51.208;8.904;2023-08-08T15:17:58;4.37;;;2.60;;
8714;SDS011;4394;51.208;8.904;2023-08-08T15:20:46;5.20;;;2.33;;
8714;SDS011;4394;51.208;8.904;2023-08-08T15:23:39;3.40;;;2.67;;
8714;SDS011;4394;51.208;8.904;2023-08-08T15:26:28;3.83;;;2.50;;
8714;SDS011;4394;51.208;8.904;2023-08-08T15:29:18;4.87;;;2.20;;
8714;SDS011;4394;51.208;8.904;2023-08-08T15:32:06;2.40;;;2.10;;
8714;SDS011;4394;51.208;8.904;2023-08-08T15:34:55;2.97;;;2.43;;
8714;SDS011;4394;51.208;8.904;2023-08-08T15:37:43;4.50;;;2.50;;
8714;SDS011;4394;51.208;8.904;2023-08-08T15:40:32;6.50;;;2.97;;
8714;SDS011;4394;51.208;8.904;2023-08-08T15:43:20;3.80;;;2.53;;
8714;SDS011;4394;51.208;8.904;2023-08-08T15:46:10;5.03;;;2.43;;
8714;SDS011;4394;51.208;8.904;2023-08-08T15:48:58;2.90;;;1.97;;
8714;SDS011;4394;51.208;8.904;2023-08-08T15:51:46;4.57;;;2.40;;
8714;SDS011;4394;51.208;8.904;2023-08-08T15:54:35;3.87;;;2.70;;
8714;SDS011;4394;51.208;8.904;2023-08-08T15:57:24;6.10;;;2.33;;
8714;SDS011;4394;51.208;8.904;2023-08-08T16:00:12;4.60;;;2.47;;
8714;SDS011;4394;51.208;8.904;2023-08-08T16:03:04;4.13;;;2.20;;
8714;SDS011;4394;51.208;8.904;2023-08-08T16:05:52;4.90;;;2.40;;
8714;SDS011;4394;51.208;8.904;2023-08-08T16:08:40;3.40;;;2.33;;
8714;SDS011;4394;51.208;8.904;2023-08-08T16:11:28;5.97;;;2.80;;
8714;SDS011;4394;51.208;8.904;2023-08-08T16:14:17;3.40;;;2.50;;
8714;SDS011;4394;51.208;8.904;2023-08-08T16:17:06;3.47;;;2.50;;
8714;SDS011;4394;51.208;8.904;2023-08-08T16:19:56;4.10;;;2.40;;
8714;SDS011;4394;51.208;8.904;2023-08-08T16:22:45;4.13;;;2.43;;
8714;SDS011;4394;51.208;8.904;2023-08-08T16:25:34;6.33;;;2.77;;
8714;SDS011;4394;51.208;8.904;2023-08-08T16:28:22;4.13;;;2.47;;
8714;SDS011;4394;51.208;8.904;2023-08-08T16:31:12;5.87;;;2.87;;
8714;SDS011;4394;51.208;8.904;2023-08-08T16:34:00;5.17;;;2.40;;
8714;SDS011;4394;51.208;8.904;2023-08-08T16:36:50;5.17;;;3.00;;
8714;SDS011;4394;51.208;8.904;2023-08-08T16:39:38;4.03;;;2.50;;
8714;SDS011;4394;51.208;8.904;2023-08-08T16:42:26;6.00;;;2.57;;
8714;SDS011;4394;51.208;8.904;2023-08-08T16:45:14;4.32;;;2.90;;
8714;SDS011;4394;51.208;8.904;2023-08-08T16:48:03;4.90;;;2.63;;
8714;SDS011;4394;51.208;8.904;2023-08-08T16:50:52;4.70;;;2.43;;
8714;SDS011;4394;51.208;8.904;2023-08-08T16:53:43;5.93;;;2.60;;
8714;SDS011;4394;51.208;8.904;2023-08-08T16:56:33;7.40;;;2.87;;
8714;SDS011;4394;51.208;8.904;2023-08-08T16:59:21;5.30;;;2.87;;
8714;SDS011;4394;51.208;8.904;2023-08-08T17:02:09;2.60;;;2.40;;
8714;SDS011;4394;51.208;8.904;2023-08-08T17:04:57;5.33;;;2.50;;
8714;SDS011;4394;51.208;8.904;2023-08-08T17:07:46;5.00;;;2.67;;
8714;SDS011;4394;51.208;8.904;2023-08-08T17:10:35;4.03;;;2.57;;
8714;SDS011;4394;51.208;8.904;2023-08-08T17:13:25;4.17;;;2.60;;
8714;SDS011;4394;51.208;8.904;2023-08-08T17:16:14;2.70;;;2.30;;
8714;SDS011;4394;51.208;8.904;2023-08-08T17:19:03;4.40;;;2.67;;
8714;SDS011;4394;51.208;8.904;2023-08-08T17:21:52;4.23;;;2.33;;
8714;SDS011;4394;51.208;8.904;2023-08-08T17:24:40;2.97;;;2.20;;
8714;SDS011;4394;51.208;8.904;2023-08-08T17:27:29;3.67;;;2.30;;
8714;SDS011;4394;51.208;8.904;2023-08-08T17:30:22;4.67;;;2.60;;